Brookville, Pennsylvania
Current Conditions -  °F | °C
As of 2:53 PM on Friday 28 Nov 2014 (Local Time) from KDUJ Reporting Station
Overcast Overcast  
Wind Chill: -11°   Ceiling: 3100
Heat Index: -5°   Visibility: 10mi
Dew Point: -11°   Wind: 9mph
Humidity: 65%   Direction: 260°W
Pressure: 30.16"   Gusts: NA
Location:  41.16°N, 79.08°W
Report Text: KDUJ 281953Z AUTO 26008KT 10SM FEW025 OVC031 M05/M11 A3016 RMK AO2 SLP239 T10501106
Loading
Personal Weather Stations






























Interactive Weather Map New forecast layout! Learn more

10-Day Weather Forecast

Advertisements
Track Severe Weather on mobile